Allison, Iowa
Current Conditions -  °F | °C
As of 12:55 AM on Saturday 01 Nov 2014 (Local Time) from KCCY Reporting Station
Clear Clear  
Wind Chill: 17°   Ceiling: Unl
Heat Index: 23°   Visibility: 10mi
Dew Point: 18°   Wind: 5mph
Humidity: 80%   Direction: 10°N
Pressure: 30.49"   Gusts: NA
Location:  42.75°N, 92.8°W
Report Text: KCCY 010555Z AUTO 01004KT 10SM CLR M05/M08 A3049 RMK AO2
Loading
Personal Weather Stations






























Interactive Weather Map
Tropical Storm Tracking
New forecast layout! Learn more

10-Day Weather Forecast

Advertisements
Track Severe Weather on mobile